Terminal Aerodrome Forecast
Issued by NWS Sioux Falls, SD

Home | Current Version | Previous Version | Graphics & Text | Print | Product List | Glossary On
Versions: 1 2 3 4 5 6 7 8 9 10 11 12 13 14 15 16 17
000
FTUS43 KFSD 181512 AAA
TAFHON
TAF AMD
KHON 181512Z 1815/1912 16011KT P6SM VCTS BKN045CB
     FM181700 16015G22KT P6SM SCT035
     FM191000 16013G20KT P6SM SCT008 OVC015=

USA.gov is the U.S. government's official web portal to all federal, state and local government web resources and services.